sensor_id;sensor_type;location;lat;lon;timestamp;pressure;altitude;pressure_sealevel;temperature;humidity
16094;BME280;8151;47.824;12.092;2023-03-01T00:01:47;96839.66;;;1.59;71.90
16094;BME280;8151;47.824;12.092;2023-03-01T00:04:15;96840.47;;;1.60;72.02
16094;BME280;8151;47.824;12.092;2023-03-01T00:06:44;96839.66;;;1.59;71.95
16094;BME280;8151;47.824;12.092;2023-03-01T00:09:14;96840.56;;;1.58;72.26
16094;BME280;8151;47.824;12.092;2023-03-01T00:11:42;96837.13;;;1.57;72.25
16094;BME280;8151;47.824;12.092;2023-03-01T00:14:12;96835.25;;;1.60;71.91
16094;BME280;8151;47.824;12.092;2023-03-01T00:16:43;96833.56;;;1.58;72.15
16094;BME280;8151;47.824;12.092;2023-03-01T00:19:14;96825.75;;;1.58;72.09
16094;BME280;8151;47.824;12.092;2023-03-01T00:21:43;96834.53;;;1.57;72.24
16094;BME280;8151;47.824;12.092;2023-03-01T00:24:12;96831.81;;;1.59;72.48
16094;BME280;8151;47.824;12.092;2023-03-01T00:26:41;96836.19;;;1.58;72.27
16094;BME280;8151;47.824;12.092;2023-03-01T00:29:09;96831.06;;;1.57;72.34
16094;BME280;8151;47.824;12.092;2023-03-01T00:31:39;96826.06;;;1.54;72.40
16094;BME280;8151;47.824;12.092;2023-03-01T00:34:07;96820.13;;;1.52;72.60
16094;BME280;8151;47.824;12.092;2023-03-01T00:36:36;96826.16;;;1.52;72.51
16094;BME280;8151;47.824;12.092;2023-03-01T00:39:09;96817.50;;;1.52;72.74
16094;BME280;8151;47.824;12.092;2023-03-01T00:41:38;96814.06;;;1.51;72.26
16094;BME280;8151;47.824;12.092;2023-03-01T00:44:07;96811.75;;;1.47;72.87
16094;BME280;8151;47.824;12.092;2023-03-01T00:46:35;96814.44;;;1.45;72.93
16094;BME280;8151;47.824;12.092;2023-03-01T00:49:05;96812.06;;;1.42;73.29
16094;BME280;8151;47.824;12.092;2023-03-01T00:51:33;96811.09;;;1.43;73.09
16094;BME280;8151;47.824;12.092;2023-03-01T00:54:02;96807.59;;;1.44;73.07
16094;BME280;8151;47.824;12.092;2023-03-01T00:56:31;96805.72;;;1.46;73.15
16094;BME280;8151;47.824;12.092;2023-03-01T00:59:00;96803.84;;;1.48;73.03
16094;BME280;8151;47.824;12.092;2023-03-01T01:01:30;96801.97;;;1.50;73.06
16094;BME280;8151;47.824;12.092;2023-03-01T01:04:00;96794.03;;;1.52;73.04
16094;BME280;8151;47.824;12.092;2023-03-01T01:06:33;96797.56;;;1.51;72.81
16094;BME280;8151;47.824;12.092;2023-03-01T01:09:02;96796.66;;;1.52;72.87
16094;BME280;8151;47.824;12.092;2023-03-01T01:11:31;96787.25;;;1.49;73.19
16094;BME280;8151;47.824;12.092;2023-03-01T01:14:00;96789.88;;;1.49;73.17
16094;BME280;8151;47.824;12.092;2023-03-01T01:16:29;96786.22;;;1.52;73.22
16094;BME280;8151;47.824;12.092;2023-03-01T01:18:59;96785.25;;;1.53;73.18
16094;BME280;8151;47.824;12.092;2023-03-01T01:21:28;96782.66;;;1.53;73.18
16094;BME280;8151;47.824;12.092;2023-03-01T01:23:58;96777.34;;;1.54;73.30
16094;BME280;8151;47.824;12.092;2023-03-01T01:26:29;96779.75;;;1.57;73.18
16094;BME280;8151;47.824;12.092;2023-03-01T01:28:59;96765.75;;;1.58;72.97
16094;BME280;8151;47.824;12.092;2023-03-01T01:31:28;96762.22;;;1.60;73.22
16094;BME280;8151;47.824;12.092;2023-03-01T01:33:57;96760.44;;;1.60;73.26
16094;BME280;8151;47.824;12.092;2023-03-01T01:36:26;96760.44;;;1.60;73.29
16094;BME280;8151;47.824;12.092;2023-03-01T01:38:56;96747.50;;;1.58;73.38
16094;BME280;8151;47.824;12.092;2023-03-01T01:41:28;96745.63;;;1.61;73.32
16094;BME280;8151;47.824;12.092;2023-03-01T01:44:15;96745.53;;;1.62;73.30
16094;BME280;8151;47.824;12.092;2023-03-01T01:46:46;96736.06;;;1.61;73.19
16094;BME280;8151;47.824;12.092;2023-03-01T01:49:23;96747.41;;;1.60;72.95
16094;BME280;8151;47.824;12.092;2023-03-01T01:51:58;96741.38;;;1.60;73.07
16094;BME280;8151;47.824;12.092;2023-03-01T01:54:31;96736.06;;;1.61;72.62
16094;BME280;8151;47.824;12.092;2023-03-01T01:57:08;96737.59;;;1.64;72.88
16094;BME280;8151;47.824;12.092;2023-03-01T01:59:37;96729.78;;;1.64;73.17
16094;BME280;8151;47.824;12.092;2023-03-01T02:02:06;96735.00;;;1.64;73.11
16094;BME280;8151;47.824;12.092;2023-03-01T02:04:34;96719.34;;;1.64;73.01
16094;BME280;8151;47.824;12.092;2023-03-01T02:07:06;96718.31;;;1.66;72.88
16094;BME280;8151;47.824;12.092;2023-03-01T02:09:36;96723.41;;;1.68;72.69
16094;BME280;8151;47.824;12.092;2023-03-01T02:12:07;96717.28;;;1.69;72.69
16094;BME280;8151;47.824;12.092;2023-03-01T02:14:35;96717.38;;;1.67;73.02
16094;BME280;8151;47.824;12.092;2023-03-01T02:17:03;96714.13;;;1.64;72.86
16094;BME280;8151;47.824;12.092;2023-03-01T02:19:42;96711.53;;;1.64;72.83
16094;BME280;8151;47.824;12.092;2023-03-01T02:22:20;96708.09;;;1.63;72.91
16094;BME280;8151;47.824;12.092;2023-03-01T02:25:00;96708.09;;;1.63;73.09
16094;BME280;8151;47.824;12.092;2023-03-01T02:27:37;96709.84;;;1.63;72.58
16094;BME280;8151;47.824;12.092;2023-03-01T02:30:10;96711.84;;;1.59;72.73
16094;BME280;8151;47.824;12.092;2023-03-01T02:32:40;96713.50;;;1.60;72.79
16094;BME280;8151;47.824;12.092;2023-03-01T02:35:11;96715.19;;;1.61;72.72
16094;BME280;8151;47.824;12.092;2023-03-01T02:37:41;96708.28;;;1.60;72.55
16094;BME280;8151;47.824;12.092;2023-03-01T02:40:13;96704.84;;;1.60;72.51
16094;BME280;8151;47.824;12.092;2023-03-01T02:42:48;96702.25;;;1.60;72.63
16094;BME280;8151;47.824;12.092;2023-03-01T02:45:19;96700.56;;;1.58;72.79
16094;BME280;8151;47.824;12.092;2023-03-01T02:47:48;96708.28;;;1.60;72.86
16094;BME280;8151;47.824;12.092;2023-03-01T02:50:38;96706.41;;;1.62;72.62
16094;BME280;8151;47.824;12.092;2023-03-01T02:53:11;96701.28;;;1.61;72.58
16094;BME280;8151;47.824;12.092;2023-03-01T02:55:41;96698.69;;;1.61;72.59
16094;BME280;8151;47.824;12.092;2023-03-01T02:58:09;96699.53;;;1.61;72.62
16094;BME280;8151;47.824;12.092;2023-03-01T03:00:41;96695.97;;;1.62;72.47
16094;BME280;8151;47.824;12.092;2023-03-01T03:03:14;96691.00;;;1.59;72.58
16094;BME280;8151;47.824;12.092;2023-03-01T03:05:43;96694.53;;;1.58;72.70
16094;BME280;8151;47.824;12.092;2023-03-01T03:08:11;96690.13;;;1.58;72.61
16094;BME280;8151;47.824;12.092;2023-03-01T03:10:41;96691.81;;;1.60;72.54
16094;BME280;8151;47.824;12.092;2023-03-01T03:13:11;96690.84;;;1.61;72.76
16094;BME280;8151;47.824;12.092;2023-03-01T03:15:47;96682.22;;;1.60;72.46
16094;BME280;8151;47.824;12.092;2023-03-01T03:18:17;96682.22;;;1.60;72.54
16094;BME280;8151;47.824;12.092;2023-03-01T03:20:46;96682.31;;;1.58;72.26
16094;BME280;8151;47.824;12.092;2023-03-01T03:23:14;96683.25;;;1.57;72.43
16094;BME280;8151;47.824;12.092;2023-03-01T03:25:42;96678.03;;;1.57;72.13
16094;BME280;8151;47.824;12.092;2023-03-01T03:28:11;96680.56;;;1.59;72.39
16094;BME280;8151;47.824;12.092;2023-03-01T03:30:40;96684.81;;;1.60;72.29
16094;BME280;8151;47.824;12.092;2023-03-01T03:33:11;96682.22;;;1.60;72.44
16094;BME280;8151;47.824;12.092;2023-03-01T03:35:41;96681.28;;;1.61;72.52
16094;BME280;8151;47.824;12.092;2023-03-01T03:38:12;96681.28;;;1.61;72.36
16094;BME280;8151;47.824;12.092;2023-03-01T03:40:45;96682.09;;;1.62;72.51
16094;BME280;8151;47.824;12.092;2023-03-01T03:43:15;96686.50;;;1.61;72.71
16094;BME280;8151;47.824;12.092;2023-03-01T03:45:45;96689.09;;;1.61;72.39
16094;BME280;8151;47.824;12.092;2023-03-01T03:48:15;96683.25;;;1.57;72.33
16094;BME280;8151;47.824;12.092;2023-03-01T03:50:48;96685.97;;;1.56;72.41
16094;BME280;8151;47.824;12.092;2023-03-01T03:53:18;96677.41;;;1.54;72.39
16094;BME280;8151;47.824;12.092;2023-03-01T03:55:46;96673.13;;;1.53;72.50
16094;BME280;8151;47.824;12.092;2023-03-01T03:58:16;96671.47;;;1.52;72.53
16094;BME280;8151;47.824;12.092;2023-03-01T04:00:50;96684.50;;;1.52;72.58
16094;BME280;8151;47.824;12.092;2023-03-01T04:03:20;96683.56;;;1.53;72.30
16094;BME280;8151;47.824;12.092;2023-03-01T04:05:49;96675.72;;;1.53;72.01
16094;BME280;8151;47.824;12.092;2023-03-01T04:08:18;96677.50;;;1.52;72.33
16094;BME280;8151;47.824;12.092;2023-03-01T04:10:51;96674.09;;;1.52;72.27
16094;BME280;8151;47.824;12.092;2023-03-01T04:13:21;96679.28;;;1.52;72.23
16094;BME280;8151;47.824;12.092;2023-03-01T04:15:53;96679.19;;;1.53;72.31
16094;BME280;8151;47.824;12.092;2023-03-01T04:18:23;96679.28;;;1.52;72.28
16094;BME280;8151;47.824;12.092;2023-03-01T04:20:53;96678.34;;;1.53;72.14
16094;BME280;8151;47.824;12.092;2023-03-01T04:23:25;96674.91;;;1.52;72.15
16094;BME280;8151;47.824;12.092;2023-03-01T04:25:54;96672.41;;;1.51;72.12
16094;BME280;8151;47.824;12.092;2023-03-01T04:28:25;96675.13;;;1.49;72.23
16094;BME280;8151;47.824;12.092;2023-03-01T04:30:55;96675.97;;;1.50;72.27
16094;BME280;8151;47.824;12.092;2023-03-01T04:33:25;96667.19;;;1.51;72.20
16094;BME280;8151;47.824;12.092;2023-03-01T04:35:54;96668.13;;;1.50;72.14
16094;BME280;8151;47.824;12.092;2023-03-01T04:38:22;96667.41;;;1.48;71.98
16094;BME280;8151;47.824;12.092;2023-03-01T04:40:50;96672.63;;;1.48;72.05
16094;BME280;8151;47.824;12.092;2023-03-01T04:43:19;96662.91;;;1.50;72.04
16094;BME280;8151;47.824;12.092;2023-03-01T04:45:47;96662.19;;;1.48;72.10
16094;BME280;8151;47.824;12.092;2023-03-01T04:48:16;96664.81;;;1.48;72.37
16094;BME280;8151;47.824;12.092;2023-03-01T04:50:46;96656.13;;;1.47;72.17
16094;BME280;8151;47.824;12.092;2023-03-01T04:53:14;96657.81;;;1.48;72.36
16094;BME280;8151;47.824;12.092;2023-03-01T04:55:42;96651.75;;;1.48;72.21
16094;BME280;8151;47.824;12.092;2023-03-01T04:58:11;96654.28;;;1.49;72.26
16094;BME280;8151;47.824;12.092;2023-03-01T05:00:39;96655.09;;;1.50;72.35
16094;BME280;8151;47.824;12.092;2023-03-01T05:03:08;96656.75;;;1.51;72.29
16094;BME280;8151;47.824;12.092;2023-03-01T05:05:38;96649.88;;;1.50;72.54
16094;BME280;8151;47.824;12.092;2023-03-01T05:08:08;96651.44;;;1.52;72.32
16094;BME280;8151;47.824;12.092;2023-03-01T05:10:45;96655.81;;;1.52;72.48
16094;BME280;8151;47.824;12.092;2023-03-01T05:13:14;96655.81;;;1.52;72.15
16094;BME280;8151;47.824;12.092;2023-03-01T05:15:48;96660.09;;;1.53;72.54
16094;BME280;8151;47.824;12.092;2023-03-01T05:18:17;96652.41;;;1.51;72.24
16094;BME280;8151;47.824;12.092;2023-03-01T05:20:45;96655.94;;;1.50;72.21
16094;BME280;8151;47.824;12.092;2023-03-01T05:23:15;96655.09;;;1.50;72.37
16094;BME280;8151;47.824;12.092;2023-03-01T05:25:44;96658.63;;;1.49;72.27
16094;BME280;8151;47.824;12.092;2023-03-01T05:28:13;96655.41;;;1.45;72.21
16094;BME280;8151;47.824;12.092;2023-03-01T05:30:41;96649.44;;;1.43;72.21
16094;BME280;8151;47.824;12.092;2023-03-01T05:33:10;96652.19;;;1.42;72.63
16094;BME280;8151;47.824;12.092;2023-03-01T05:35:41;96651.44;;;1.40;72.33
16094;BME280;8151;47.824;12.092;2023-03-01T05:38:11;96655.31;;;1.34;72.33
16094;BME280;8151;47.824;12.092;2023-03-01T05:40:42;96652.81;;;1.32;72.49
16094;BME280;8151;47.824;12.092;2023-03-01T05:43:13;96654.69;;;1.30;72.58
16094;BME280;8151;47.824;12.092;2023-03-01T05:45:42;96654.59;;;1.32;72.14
16094;BME280;8151;47.824;12.092;2023-03-01T05:48:12;96653.00;;;1.29;72.05
16094;BME280;8151;47.824;12.092;2023-03-01T05:50:42;96652.28;;;1.27;72.12
16094;BME280;8151;47.824;12.092;2023-03-01T05:53:13;96649.03;;;1.24;72.42
16094;BME280;8151;47.824;12.092;2023-03-01T05:55:43;96650.91;;;1.22;72.02
16094;BME280;8151;47.824;12.092;2023-03-01T05:58:16;96650.81;;;1.23;72.31
16094;BME280;8151;47.824;12.092;2023-03-01T06:00:46;96650.72;;;1.25;72.10
16094;BME280;8151;47.824;12.092;2023-03-01T06:03:16;96641.13;;;1.25;72.04
16094;BME280;8151;47.824;12.092;2023-03-01T06:05:45;96643.81;;;1.24;72.17
16094;BME280;8151;47.824;12.092;2023-03-01T06:08:14;96652.59;;;1.23;72.09
16094;BME280;8151;47.824;12.092;2023-03-01T06:10:43;96655.28;;;1.21;71.78
16094;BME280;8151;47.824;12.092;2023-03-01T06:13:12;96647.47;;;1.21;71.77
16094;BME280;8151;47.824;12.092;2023-03-01T06:15:40;96652.50;;;1.24;71.98
16094;BME280;8151;47.824;12.092;2023-03-01T06:18:08;96647.06;;;1.27;71.99
16094;BME280;8151;47.824;12.092;2023-03-01T06:20:37;96648.50;;;1.31;72.10
16094;BME280;8151;47.824;12.092;2023-03-01T06:23:05;96640.69;;;1.31;71.88
16094;BME280;8151;47.824;12.092;2023-03-01T06:25:35;96644.16;;;1.32;72.08
16094;BME280;8151;47.824;12.092;2023-03-01T06:28:06;96645.81;;;1.33;72.07
16094;BME280;8151;47.824;12.092;2023-03-01T06:30:34;96646.75;;;1.32;71.94
16094;BME280;8151;47.824;12.092;2023-03-01T06:33:03;96646.00;;;1.30;71.71
16094;BME280;8151;47.824;12.092;2023-03-01T06:35:31;96649.47;;;1.30;71.74
16094;BME280;8151;47.824;12.092;2023-03-01T06:38:01;96654.69;;;1.30;71.89
16094;BME280;8151;47.824;12.092;2023-03-01T06:40:31;96653.63;;;1.33;72.10
16094;BME280;8151;47.824;12.092;2023-03-01T06:43:02;96655.19;;;1.35;71.89
16094;BME280;8151;47.824;12.092;2023-03-01T06:45:32;96655.09;;;1.37;71.83
16094;BME280;8151;47.824;12.092;2023-03-01T06:48:04;96652.47;;;1.37;72.06
16094;BME280;8151;47.824;12.092;2023-03-01T06:50:33;96655.72;;;1.41;71.88
16094;BME280;8151;47.824;12.092;2023-03-01T06:53:02;96653.75;;;1.44;71.83
16094;BME280;8151;47.824;12.092;2023-03-01T06:55:31;96649.34;;;1.45;71.64
16094;BME280;8151;47.824;12.092;2023-03-01T06:58:01;96649.16;;;1.48;71.88
16094;BME280;8151;47.824;12.092;2023-03-01T07:00:32;96652.59;;;1.48;72.08
16094;BME280;8151;47.824;12.092;2023-03-01T07:03:01;96647.28;;;1.50;71.73
16094;BME280;8151;47.824;12.092;2023-03-01T07:05:30;96657.47;;;1.53;71.75
16094;BME280;8151;47.824;12.092;2023-03-01T07:07:58;96660.09;;;1.53;71.61
16094;BME280;8151;47.824;12.092;2023-03-01T07:10:27;96649.66;;;1.53;71.95
16094;BME280;8151;47.824;12.092;2023-03-01T07:12:59;96656.47;;;1.55;72.18
16094;BME280;8151;47.824;12.092;2023-03-01T07:15:28;96653.84;;;1.55;71.99
16094;BME280;8151;47.824;12.092;2023-03-01T07:17:58;96657.19;;;1.57;71.94
16094;BME280;8151;47.824;12.092;2023-03-01T07:20:26;96653.53;;;1.60;71.95
16094;BME280;8151;47.824;12.092;2023-03-01T07:22:55;96658.72;;;1.60;71.77
16094;BME280;8151;47.824;12.092;2023-03-01T07:25:25;96658.53;;;1.63;71.88
16094;BME280;8151;47.824;12.092;2023-03-01T07:27:54;96661.97;;;1.64;71.82
16094;BME280;8151;47.824;12.092;2023-03-01T07:30:25;96661.63;;;1.68;71.90
16094;BME280;8151;47.824;12.092;2023-03-01T07:32:56;96657.28;;;1.69;71.48
16094;BME280;8151;47.824;12.092;2023-03-01T07:35:27;96661.78;;;1.67;71.69
16094;BME280;8151;47.824;12.092;2023-03-01T07:37:56;96662.59;;;1.67;71.42
16094;BME280;8151;47.824;12.092;2023-03-01T07:40:24;96653.09;;;1.66;71.61
16094;BME280;8151;47.824;12.092;2023-03-01T07:42:55;96656.44;;;1.68;71.67
16094;BME280;8151;47.824;12.092;2023-03-01T07:45:23;96651.22;;;1.68;71.76
16094;BME280;8151;47.824;12.092;2023-03-01T07:47:52;96651.94;;;1.70;71.77
16094;BME280;8151;47.824;12.092;2023-03-01T07:50:22;96651.00;;;1.71;71.55
16094;BME280;8151;47.824;12.092;2023-03-01T07:52:52;96645.56;;;1.74;71.55
16094;BME280;8151;47.824;12.092;2023-03-01T07:55:20;96655.91;;;1.76;71.44
16094;BME280;8151;47.824;12.092;2023-03-01T07:57:48;96647.97;;;1.77;71.45
16094;BME280;8151;47.824;12.092;2023-03-01T08:00:17;96643.47;;;1.80;71.51
16094;BME280;8151;47.824;12.092;2023-03-01T08:02:46;96645.78;;;1.84;71.60
16094;BME280;8151;47.824;12.092;2023-03-01T08:05:15;96648.25;;;1.86;71.47
16094;BME280;8151;47.824;12.092;2023-03-01T08:07:43;96644.72;;;1.87;71.38
16094;BME280;8151;47.824;12.092;2023-03-01T08:10:13;96639.16;;;1.91;71.45
16094;BME280;8151;47.824;12.092;2023-03-01T08:12:41;96641.47;;;1.96;71.29
16094;BME280;8151;47.824;12.092;2023-03-01T08:15:13;96637.72;;;2.00;71.11
16094;BME280;8151;47.824;12.092;2023-03-01T08:17:45;96633.69;;;2.07;71.33
16094;BME280;8151;47.824;12.092;2023-03-01T08:20:13;96626.38;;;2.12;71.31
16094;BME280;8151;47.824;12.092;2023-03-01T08:22:50;96630.44;;;2.16;71.00
16094;BME280;8151;47.824;12.092;2023-03-01T08:25:20;96636.19;;;2.22;71.40
16094;BME280;8151;47.824;12.092;2023-03-01T08:27:49;96626.34;;;2.25;70.68
16094;BME280;8151;47.824;12.092;2023-03-01T08:30:17;96637.28;;;2.30;71.12
16094;BME280;8151;47.824;12.092;2023-03-01T08:32:47;96632.69;;;2.34;71.04
16094;BME280;8151;47.824;12.092;2023-03-01T08:35:16;96633.09;;;2.41;70.77
16094;BME280;8151;47.824;12.092;2023-03-01T08:37:45;96627.50;;;2.45;70.90
16094;BME280;8151;47.824;12.092;2023-03-01T08:40:13;96620.19;;;2.50;70.66
16094;BME280;8151;47.824;12.092;2023-03-01T08:42:43;96618.19;;;2.54;70.77
16094;BME280;8151;47.824;12.092;2023-03-01T08:45:12;96617.00;;;2.58;70.42
16094;BME280;8151;47.824;12.092;2023-03-01T08:47:41;96621.78;;;2.64;70.55
16094;BME280;8151;47.824;12.092;2023-03-01T08:50:10;96613.38;;;2.72;70.53
16094;BME280;8151;47.824;12.092;2023-03-01T08:52:38;96613.63;;;2.80;70.74
16094;BME280;8151;47.824;12.092;2023-03-01T08:55:08;96609.75;;;2.86;70.39
16094;BME280;8151;47.824;12.092;2023-03-01T08:57:36;96605.84;;;2.91;70.55
16094;BME280;8151;47.824;12.092;2023-03-01T09:00:07;96597.53;;;2.98;70.70
16094;BME280;8151;47.824;12.092;2023-03-01T09:02:36;96605.63;;;3.06;70.67
16094;BME280;8151;47.824;12.092;2023-03-01T09:05:06;96598.28;;;3.11;70.47
16094;BME280;8151;47.824;12.092;2023-03-01T09:07:34;96597.31;;;3.12;70.58
16094;BME280;8151;47.824;12.092;2023-03-01T09:10:03;96594.47;;;3.15;70.60
16094;BME280;8151;47.824;12.092;2023-03-01T09:12:32;96593.19;;;3.21;70.48
16094;BME280;8151;47.824;12.092;2023-03-01T09:15:01;96587.69;;;3.24;70.41
16094;BME280;8151;47.824;12.092;2023-03-01T09:17:32;96586.41;;;3.29;70.45
16094;BME280;8151;47.824;12.092;2023-03-01T09:20:00;96586.88;;;3.34;70.35
16094;BME280;8151;47.824;12.092;2023-03-01T09:22:33;96594.38;;;3.39;70.48
16094;BME280;8151;47.824;12.092;2023-03-01T09:25:01;96587.13;;;3.43;70.50
16094;BME280;8151;47.824;12.092;2023-03-01T09:27:31;96593.78;;;3.47;70.14
16094;BME280;8151;47.824;12.092;2023-03-01T09:29:59;96591.66;;;3.52;70.36
16094;BME280;8151;47.824;12.092;2023-03-01T09:32:30;96588.22;;;3.63;70.29
16094;BME280;8151;47.824;12.092;2023-03-01T09:35:01;96587.47;;;3.72;70.50
16094;BME280;8151;47.824;12.092;2023-03-01T09:37:32;96583.66;;;3.76;70.59
16094;BME280;8151;47.824;12.092;2023-03-01T09:40:02;96585.69;;;3.84;70.58
16094;BME280;8151;47.824;12.092;2023-03-01T09:42:34;96583.53;;;3.89;70.45
16094;BME280;8151;47.824;12.092;2023-03-01T09:45:06;96578.78;;;3.94;70.28
16094;BME280;8151;47.824;12.092;2023-03-01T09:47:44;96585.31;;;4.00;70.39
16094;BME280;8151;47.824;12.092;2023-03-01T09:50:16;96591.25;;;4.02;70.51
16094;BME280;8151;47.824;12.092;2023-03-01T09:52:47;96596.25;;;4.05;70.25
16094;BME280;8151;47.824;12.092;2023-03-01T09:55:20;96594.47;;;4.05;69.91
16094;BME280;8151;47.824;12.092;2023-03-01T09:57:56;96592.78;;;4.04;70.23
16094;BME280;8151;47.824;12.092;2023-03-01T10:00:35;96594.81;;;4.01;70.16
16094;BME280;8151;47.824;12.092;2023-03-01T10:03:12;96593.41;;;3.97;69.87
16094;BME280;8151;47.824;12.092;2023-03-01T10:05:50;96595.19;;;3.96;69.61
16094;BME280;8151;47.824;12.092;2023-03-01T10:08:35;96601.97;;;3.99;70.00
16094;BME280;8151;47.824;12.092;2023-03-01T10:11:28;96593.28;;;3.98;69.53
16094;BME280;8151;47.824;12.092;2023-03-01T10:14:02;96590.41;;;4.01;69.99
16094;BME280;8151;47.824;12.092;2023-03-01T10:16:39;96584.22;;;4.02;69.65
16094;BME280;8151;47.824;12.092;2023-03-01T10:19:12;96583.16;;;4.05;69.83
16094;BME280;8151;47.824;12.092;2023-03-01T10:21:45;96583.16;;;4.05;69.54
16094;BME280;8151;47.824;12.092;2023-03-01T10:24:16;96578.78;;;4.05;69.44
16094;BME280;8151;47.824;12.092;2023-03-01T10:26:54;96576.25;;;4.04;69.44
16094;BME280;8151;47.824;12.092;2023-03-01T10:29:26;96579.47;;;4.07;69.66
16094;BME280;8151;47.824;12.092;2023-03-01T10:31:57;96573.97;;;4.10;69.08
16094;BME280;8151;47.824;12.092;2023-03-01T10:34:31;96569.44;;;4.12;69.13
16094;BME280;8151;47.824;12.092;2023-03-01T10:37:12;96556.94;;;4.16;69.20
16094;BME280;8151;47.824;12.092;2023-03-01T10:40:01;96549.16;;;4.26;69.21
16094;BME280;8151;47.824;12.092;2023-03-01T10:42:36;96544.13;;;4.34;68.81
16094;BME280;8151;47.824;12.092;2023-03-01T10:45:22;96544.84;;;4.36;68.42
16094;BME280;8151;47.824;12.092;2023-03-01T10:48:04;96532.94;;;4.32;68.73
16094;BME280;8151;47.824;12.092;2023-03-01T10:50:33;96535.56;;;4.32;68.73
16094;BME280;8151;47.824;12.092;2023-03-01T10:53:04;96527.47;;;4.35;68.51
16094;BME280;8151;47.824;12.092;2023-03-01T10:55:35;96526.97;;;4.41;69.08
16094;BME280;8151;47.824;12.092;2023-03-01T10:58:15;96519.22;;;4.40;68.93
16094;BME280;8151;47.824;12.092;2023-03-01T11:00:48;96531.63;;;4.38;68.83
16094;BME280;8151;47.824;12.092;2023-03-01T11:03:21;96529.13;;;4.36;68.80
16094;BME280;8151;47.824;12.092;2023-03-01T11:06:02;96520.81;;;4.31;68.97
16094;BME280;8151;47.824;12.092;2023-03-01T11:08:38;96517.50;;;4.29;68.51
16094;BME280;8151;47.824;12.092;2023-03-01T11:11:14;96513.22;;;4.28;68.36
16094;BME280;8151;47.824;12.092;2023-03-01T11:13:54;96510.72;;;4.26;68.64
16094;BME280;8151;47.824;12.092;2023-03-01T11:16:29;96496.56;;;4.29;68.35
16094;BME280;8151;47.824;12.092;2023-03-01T11:19:15;96487.47;;;4.33;68.48
16094;BME280;8151;47.824;12.092;2023-03-01T11:22:01;96495.81;;;4.38;68.52
16094;BME280;8151;47.824;12.092;2023-03-01T11:24:50;96487.78;;;4.40;68.42
16094;BME280;8151;47.824;12.092;2023-03-01T11:27:40;96483.41;;;4.40;68.26
16094;BME280;8151;47.824;12.092;2023-03-01T11:30:18;96482.19;;;4.44;68.21
16094;BME280;8151;47.824;12.092;2023-03-01T11:32:55;96481.22;;;4.45;68.23
16094;BME280;8151;47.824;12.092;2023-03-01T11:35:27;96476.69;;;4.47;68.02
16094;BME280;8151;47.824;12.092;2023-03-01T11:38:04;96482.78;;;4.48;68.66
16094;BME280;8151;47.824;12.092;2023-03-01T11:40:41;96477.38;;;4.49;68.64
16094;BME280;8151;47.824;12.092;2023-03-01T11:43:16;96476.44;;;4.50;67.90
16094;BME280;8151;47.824;12.092;2023-03-01T11:48:47;96473.28;;;4.57;68.18
16094;BME280;8151;47.824;12.092;2023-03-01T11:51:24;96459.50;;;4.54;68.35
16094;BME280;8151;47.824;12.092;2023-03-01T11:54:13;96458.78;;;4.52;68.08
16094;BME280;8151;47.824;12.092;2023-03-01T11:56:51;96464.72;;;4.54;67.97
16094;BME280;8151;47.824;12.092;2023-03-01T11:59:45;96462.81;;;4.57;67.71
16094;BME280;8151;47.824;12.092;2023-03-01T12:02:52;96457.44;;;4.58;68.29
16094;BME280;8151;47.824;12.092;2023-03-01T12:05:49;96457.34;;;4.60;67.44
16094;BME280;8151;47.824;12.092;2023-03-01T12:08:25;96459.94;;;4.60;68.11
16094;BME280;8151;47.824;12.092;2023-03-01T12:11:03;96449.47;;;4.60;67.68
16094;BME280;8151;47.824;12.092;2023-03-01T12:14:02;96439.00;;;4.60;67.65
16094;BME280;8151;47.824;12.092;2023-03-01T12:16:45;96449.19;;;4.63;67.51
16094;BME280;8151;47.824;12.092;2023-03-01T12:19:31;96444.94;;;4.62;67.41
16094;BME280;8151;47.824;12.092;2023-03-01T12:22:11;96457.34;;;4.60;67.65
16094;BME280;8151;47.824;12.092;2023-03-01T12:25:03;96462.94;;;4.55;68.01
16094;BME280;8151;47.824;12.092;2023-03-01T12:28:05;96456.41;;;4.49;67.77
16094;BME280;8151;47.824;12.092;2023-03-01T12:30:54;96447.44;;;4.42;68.09
16094;BME280;8151;47.824;12.092;2023-03-01T12:33:30;96455.78;;;4.36;67.79
16094;BME280;8151;47.824;12.092;2023-03-01T12:36:15;96444.47;;;4.36;67.62
16094;BME280;8151;47.824;12.092;2023-03-01T12:38:59;96437.84;;;4.31;68.22
16094;BME280;8151;47.824;12.092;2023-03-01T12:41:43;96431.66;;;4.32;67.67
16094;BME280;8151;47.824;12.092;2023-03-01T12:44:28;96430.16;;;4.40;68.01
16094;BME280;8151;47.824;12.092;2023-03-01T12:47:10;96440.13;;;4.46;67.59
16094;BME280;8151;47.824;12.092;2023-03-01T12:49:43;96441.66;;;4.69;67.80
16094;BME280;8151;47.824;12.092;2023-03-01T12:52:16;96430.47;;;4.98;66.62
16094;BME280;8151;47.824;12.092;2023-03-01T12:54:47;96435.53;;;5.21;66.22
16094;BME280;8151;47.824;12.092;2023-03-01T12:57:20;96424.13;;;5.41;66.89
16094;BME280;8151;47.824;12.092;2023-03-01T13:00:01;96424.44;;;5.58;66.31
16094;BME280;8151;47.824;12.092;2023-03-01T13:02:41;96437.31;;;5.70;66.77
16094;BME280;8151;47.824;12.092;2023-03-01T13:05:24;96428.63;;;5.80;66.66
16094;BME280;8151;47.824;12.092;2023-03-01T13:08:00;96415.63;;;5.88;66.86
16094;BME280;8151;47.824;12.092;2023-03-01T13:10:34;96406.38;;;5.94;66.90
16094;BME280;8151;47.824;12.092;2023-03-01T13:13:14;96397.13;;;6.09;66.45
16094;BME280;8151;47.824;12.092;2023-03-01T13:15:42;96398.09;;;6.18;66.52
16094;BME280;8151;47.824;12.092;2023-03-01T13:18:42;96398.19;;;6.36;66.65
16094;BME280;8151;47.824;12.092;2023-03-01T13:21:10;96394.16;;;6.51;66.53
16094;BME280;8151;47.824;12.092;2023-03-01T13:23:39;96392.03;;;6.64;66.21
16094;BME280;8151;47.824;12.092;2023-03-01T13:26:13;96378.88;;;6.74;66.23
16094;BME280;8151;47.824;12.092;2023-03-01T13:28:53;96378.81;;;6.84;66.25
16094;BME280;8151;47.824;12.092;2023-03-01T13:31:58;96386.97;;;6.90;65.81
16094;BME280;8151;47.824;12.092;2023-03-01T13:34:52;96388.75;;;6.90;66.03
16094;BME280;8151;47.824;12.092;2023-03-01T13:37:32;96382.69;;;6.89;66.31
16094;BME280;8151;47.824;12.092;2023-03-01T13:40:05;96391.78;;;6.95;66.37
16094;BME280;8151;47.824;12.092;2023-03-01T13:42:54;96385.13;;;7.01;66.37